Time;durP1;ratioP1;P1;durP2;ratioP2;P2;SDS_P1;SDS_P2;PMS_P1;PMS_P2;Temp;Humidity;BMP_temperature;BMP_pressure;BME280_temperature;BME280_humidity;BME280_pressure;Samples;Min_cycle;Max_cycle;Signal;HPM_P1;HPM_P2
2021/10/14 00:00:42;;;;;;;130.50;32.40;;;;;;;;;;8229737;28;20076;-73
2021/10/14 00:04:48;;;;;;;143.38;32.70;;;;;;;;;;8239488;28;20463;-72
2021/10/14 00:08:53;;;;;;;119.07;28.60;;;;;;;;;;8195920;28;20600;-73
2021/10/14 00:12:59;;;;;;;137.57;26.73;;;;;;;;;;8194956;28;20458;-73
2021/10/14 00:17:04;;;;;;;105.85;28.05;;;;;;;;;;8194190;28;20477;-72
2021/10/14 00:21:10;;;;;;;98.95;24.92;;;;;;;;;;8194978;28;20450;-73
2021/10/14 00:25:15;;;;;;;155.00;25.55;;;;;;;;;;8195162;28;20473;-73
2021/10/14 00:29:20;;;;;;;91.55;25.85;;;;;;;;;;8195299;28;20054;-73
2021/10/14 00:33:25;;;;;;;118.97;24.25;;;;;;;;;;8194454;28;20068;-73
2021/10/14 00:37:30;;;;;;;76.15;21.40;;;;;;;;;;8211076;28;20057;-73
2021/10/14 00:41:36;;;;;;;106.80;23.58;;;;;;;;;;8197837;28;20354;-73
2021/10/14 00:45:41;;;;;;;95.60;25.65;;;;;;;;;;8193938;28;20500;-73
2021/10/14 00:49:47;;;;;;;189.85;30.73;;;;;;;;;;8193161;28;20416;-72
2021/10/14 00:53:52;;;;;;;133.85;23.30;;;;;;;;;;8177016;28;20485;-73
2021/10/14 00:57:58;;;;;;;158.60;22.52;;;;;;;;;;8194724;28;20357;-73
2021/10/14 01:02:04;;;;;;;209.65;23.38;;;;;;;;;;8194137;28;20331;-73
2021/10/14 01:06:10;;;;;;;171.60;20.98;;;;;;;;;;8198918;28;20049;-74
2021/10/14 01:10:15;;;;;;;132.20;19.58;;;;;;;;;;8226478;28;20388;-73
2021/10/14 01:14:20;;;;;;;112.13;18.70;;;;;;;;;;8227576;28;20465;-73
2021/10/14 01:18:26;;;;;;;83.45;19.38;;;;;;;;;;8209795;28;20064;-73
2021/10/14 01:22:31;;;;;;;59.25;17.98;;;;;;;;;;8228300;28;20464;-73
2021/10/14 01:26:39;;;;;;;71.80;17.27;;;;;;;;;;8226254;28;20049;-73
2021/10/14 01:30:45;;;;;;;43.90;14.90;;;;;;;;;;8208952;28;20453;-73
2021/10/14 01:35:06;;;;;;;56.85;15.88;;;;;;;;;;8226897;28;20441;-73
2021/10/14 01:39:12;;;;;;;59.65;16.02;;;;;;;;;;8209618;28;20519;-74
2021/10/14 01:43:17;;;;;;;57.15;16.50;;;;;;;;;;8225314;28;20421;-73
2021/10/14 01:47:22;;;;;;;53.72;16.55;;;;;;;;;;8209665;28;20342;-73
2021/10/14 01:51:27;;;;;;;42.50;13.93;;;;;;;;;;8226123;28;20464;-73
2021/10/14 01:55:33;;;;;;;57.65;15.77;;;;;;;;;;8208825;28;20460;-72
2021/10/14 01:59:38;;;;;;;43.17;16.70;;;;;;;;;;8207894;28;20346;-73
2021/10/14 02:03:43;;;;;;;128.80;19.42;;;;;;;;;;8223899;28;20071;-73
2021/10/14 02:07:48;;;;;;;96.68;20.38;;;;;;;;;;8224902;28;20353;-72
2021/10/14 02:11:53;;;;;;;88.10;19.45;;;;;;;;;;8225623;28;20361;-73
2021/10/14 02:15:58;;;;;;;122.22;21.80;;;;;;;;;;8191200;28;20369;-73
2021/10/14 02:20:04;;;;;;;128.73;22.92;;;;;;;;;;8226111;28;20067;-73
2021/10/14 02:24:09;;;;;;;94.22;23.17;;;;;;;;;;8225715;28;20494;-73
2021/10/14 02:28:14;;;;;;;108.28;20.55;;;;;;;;;;8224646;28;20042;-73
2021/10/14 02:32:20;;;;;;;83.85;21.50;;;;;;;;;;8207701;28;20049;-73
2021/10/14 02:36:25;;;;;;;94.13;21.75;;;;;;;;;;8226539;28;20329;-73
2021/10/14 02:40:30;;;;;;;70.03;21.67;;;;;;;;;;8224888;28;20353;-73
2021/10/14 02:44:35;;;;;;;62.13;19.25;;;;;;;;;;8224136;28;20050;-72
2021/10/14 02:48:41;;;;;;;65.63;17.23;;;;;;;;;;8224559;28;20468;-73
2021/10/14 02:52:46;;;;;;;58.40;15.90;;;;;;;;;;8208473;28;20336;-72
2021/10/14 02:56:51;;;;;;;45.58;11.88;;;;;;;;;;8207037;28;20653;-72
2021/10/14 03:00:57;;;;;;;39.25;10.32;;;;;;;;;;8225108;28;20049;-72
2021/10/14 03:05:02;;;;;;;41.15;9.35;;;;;;;;;;8226184;28;20468;-73
2021/10/14 03:09:08;;;;;;;39.83;10.05;;;;;;;;;;8226247;28;20064;-73
2021/10/14 03:13:13;;;;;;;52.50;10.85;;;;;;;;;;8213112;28;20494;-72
2021/10/14 03:17:19;;;;;;;62.58;11.98;;;;;;;;;;8230651;28;20326;-73
2021/10/14 03:21:24;;;;;;;47.60;11.65;;;;;;;;;;8232571;28;20494;-73
2021/10/14 03:25:30;;;;;;;91.63;11.05;;;;;;;;;;8230917;28;20479;-73
2021/10/14 03:29:35;;;;;;;106.88;9.27;;;;;;;;;;8214184;28;20364;-73
2021/10/14 03:33:40;;;;;;;91.50;9.27;;;;;;;;;;8229838;28;20446;-73
2021/10/14 03:37:46;;;;;;;77.15;9.43;;;;;;;;;;8230515;28;20365;-72
2021/10/14 03:41:52;;;;;;;67.47;8.63;;;;;;;;;;8196693;28;20398;-73
2021/10/14 03:45:57;;;;;;;63.38;9.25;;;;;;;;;;8228964;28;20456;-73
2021/10/14 03:50:03;;;;;;;67.53;9.90;;;;;;;;;;8227981;28;20329;-73
2021/10/14 03:54:09;;;;;;;38.88;9.45;;;;;;;;;;8230152;28;20411;-73
2021/10/14 03:58:15;;;;;;;61.35;9.80;;;;;;;;;;8229264;28;20352;-73
2021/10/14 04:02:20;;;;;;;47.88;9.15;;;;;;;;;;8228015;28;20389;-73
2021/10/14 04:06:25;;;;;;;76.38;9.05;;;;;;;;;;8210907;28;20053;-73
2021/10/14 04:10:30;;;;;;;40.33;7.53;;;;;;;;;;8211823;28;20354;-72
2021/10/14 04:14:36;;;;;;;42.78;9.55;;;;;;;;;;8210772;28;20539;-73
2021/10/14 04:18:41;;;;;;;56.58;8.57;;;;;;;;;;8194948;28;20491;-73
2021/10/14 04:22:46;;;;;;;56.05;8.73;;;;;;;;;;8228338;28;20053;-73
2021/10/14 04:26:51;;;;;;;68.40;9.60;;;;;;;;;;8229093;28;20356;-72
2021/10/14 04:30:56;;;;;;;66.95;11.75;;;;;;;;;;8229467;28;20330;-72
2021/10/14 04:35:04;;;;;;;70.30;11.57;;;;;;;;;;8226362;28;20416;-73
2021/10/14 04:39:10;;;;;;;145.40;16.40;;;;;;;;;;8210834;28;20104;-73
2021/10/14 04:43:15;;;;;;;74.45;17.55;;;;;;;;;;8227459;28;20366;-72
2021/10/14 04:47:20;;;;;;;69.35;18.98;;;;;;;;;;8228457;28;20508;-72
2021/10/14 04:51:25;;;;;;;98.90;15.35;;;;;;;;;;8196024;28;20469;-73
2021/10/14 04:55:31;;;;;;;69.25;12.38;;;;;;;;;;8210438;28;20961;-72
2021/10/14 04:59:36;;;;;;;74.88;13.85;;;;;;;;;;8209793;28;20075;-72
2021/10/14 05:03:42;;;;;;;53.28;12.40;;;;;;;;;;8226490;28;20421;-73
2021/10/14 05:07:47;;;;;;;71.47;13.07;;;;;;;;;;8226809;28;20061;-72
2021/10/14 05:11:52;;;;;;;63.17;11.70;;;;;;;;;;8226890;28;20064;-72
2021/10/14 05:15:58;;;;;;;100.63;13.27;;;;;;;;;;8225780;28;20441;-72
2021/10/14 05:20:07;;;;;;;82.35;13.00;;;;;;;;;;8210729;28;20449;-72
2021/10/14 05:24:12;;;;;;;89.18;13.25;;;;;;;;;;8208804;28;20574;-73
2021/10/14 05:28:18;;;;;;;124.45;22.98;;;;;;;;;;8208667;28;20380;-72
2021/10/14 05:32:23;;;;;;;77.60;16.63;;;;;;;;;;8225984;28;20461;-72
2021/10/14 05:36:28;;;;;;;62.35;14.10;;;;;;;;;;8227976;28;20476;-72
2021/10/14 05:40:34;;;;;;;98.78;15.05;;;;;;;;;;8227352;28;20357;-72
2021/10/14 05:44:39;;;;;;;126.53;15.02;;;;;;;;;;8208608;28;20396;-72
2021/10/14 05:48:45;;;;;;;116.40;13.38;;;;;;;;;;8224965;28;20476;-72
2021/10/14 05:52:50;;;;;;;72.57;12.63;;;;;;;;;;8225236;28;20068;-72
2021/10/14 05:56:55;;;;;;;90.82;14.80;;;;;;;;;;8192259;28;20373;-73
2021/10/14 06:01:00;;;;;;;126.32;15.38;;;;;;;;;;8207917;28;20460;-72
2021/10/14 06:05:06;;;;;;;84.47;14.10;;;;;;;;;;8207306;28;20354;-72
2021/10/14 06:09:11;;;;;;;76.45;13.90;;;;;;;;;;8176335;28;20093;-72
2021/10/14 06:13:17;;;;;;;50.63;11.73;;;;;;;;;;8191725;28;20481;-72
2021/10/14 06:17:22;;;;;;;57.75;14.02;;;;;;;;;;8190991;28;20109;-73
2021/10/14 06:21:29;;;;;;;85.78;15.32;;;;;;;;;;8190799;28;20500;-72
2021/10/14 06:25:33;;;;;;;77.70;14.80;;;;;;;;;;8191073;28;20469;-72
2021/10/14 06:29:38;;;;;;;58.30;13.05;;;;;;;;;;8193273;28;20054;-72
2021/10/14 06:33:44;;;;;;;100.18;16.23;;;;;;;;;;8192825;28;20368;-72
2021/10/14 06:37:49;;;;;;;86.00;12.15;;;;;;;;;;8192770;28;20499;-72
2021/10/14 06:41:55;;;;;;;78.47;14.40;;;;;;;;;;8192883;28;20610;-72
2021/10/14 06:46:01;;;;;;;79.47;13.77;;;;;;;;;;8195617;28;20475;-72
2021/10/14 06:50:07;;;;;;;87.63;13.75;;;;;;;;;;8199035;28;20089;-72
2021/10/14 06:54:14;;;;;;;88.07;12.77;;;;;;;;;;8197583;28;20484;-72
2021/10/14 06:58:19;;;;;;;61.28;13.55;;;;;;;;;;8199277;28;20475;-73
2021/10/14 07:02:25;;;;;;;52.33;12.02;;;;;;;;;;8196959;28;20469;-73
2021/10/14 07:06:31;;;;;;;87.15;13.90;;;;;;;;;;8203176;28;20072;-73
2021/10/14 07:10:36;;;;;;;26.15;10.20;;;;;;;;;;8230142;28;20460;-72
2021/10/14 07:14:44;;;;;;;41.15;11.60;;;;;;;;;;8232403;28;20344;-73
2021/10/14 07:18:47;;;;;;;106.68;13.88;;;;;;;;;;8212859;28;20072;-72
2021/10/14 07:22:53;;;;;;;54.92;12.40;;;;;;;;;;8228412;28;20053;-73
2021/10/14 07:26:58;;;;;;;39.85;9.95;;;;;;;;;;8212475;28;20360;-72
2021/10/14 07:31:03;;;;;;;55.83;11.25;;;;;;;;;;8230737;28;20453;-72
2021/10/14 07:35:09;;;;;;;66.43;11.23;;;;;;;;;;8233280;28;20344;-72
2021/10/14 07:39:15;;;;;;;63.55;8.98;;;;;;;;;;8197088;28;20330;-72
2021/10/14 07:43:20;;;;;;;32.35;8.35;;;;;;;;;;8213385;28;20465;-72
2021/10/14 07:47:25;;;;;;;54.88;11.73;;;;;;;;;;8212858;28;20503;-73
2021/10/14 07:51:30;;;;;;;43.65;11.57;;;;;;;;;;8229716;28;20053;-73
2021/10/14 07:55:35;;;;;;;45.63;13.60;;;;;;;;;;8230203;28;20484;-72
2021/10/14 07:59:41;;;;;;;46.80;12.95;;;;;;;;;;8211353;28;20455;-73
2021/10/14 08:03:46;;;;;;;43.45;14.10;;;;;;;;;;8229126;28;20360;-72
2021/10/14 08:07:51;;;;;;;40.65;15.07;;;;;;;;;;8179381;28;20472;-73
2021/10/14 08:11:57;;;;;;;60.65;16.13;;;;;;;;;;8196131;28;20492;-73
2021/10/14 08:16:05;;;;;;;53.00;14.25;;;;;;;;;;8196197;28;20073;-72
2021/10/14 08:20:11;;;;;;;41.78;14.98;;;;;;;;;;8195012;28;20340;-72
2021/10/14 08:24:16;;;;;;;50.17;14.95;;;;;;;;;;8196475;28;20450;-72
2021/10/14 08:28:23;;;;;;;43.30;15.90;;;;;;;;;;8195112;28;20078;-72
2021/10/14 08:32:28;;;;;;;37.03;15.48;;;;;;;;;;8196529;28;20491;-72
2021/10/14 08:36:33;;;;;;;47.72;15.60;;;;;;;;;;8197083;28;20046;-73
2021/10/14 08:40:41;;;;;;;38.50;15.52;;;;;;;;;;8195942;28;20473;-73
2021/10/14 08:44:47;;;;;;;44.20;14.70;;;;;;;;;;8195648;28;20374;-72
2021/10/14 08:48:52;;;;;;;39.53;12.75;;;;;;;;;;8194196;28;20477;-72
2021/10/14 08:52:57;;;;;;;32.25;12.20;;;;;;;;;;8194011;28;20072;-74
2021/10/14 08:57:03;;;;;;;39.03;14.60;;;;;;;;;;8194950;28;20357;-72
2021/10/14 09:01:12;;;;;;;38.97;14.45;;;;;;;;;;8194262;28;20393;-73
2021/10/14 09:05:18;;;;;;;37.20;15.52;;;;;;;;;;8193831;28;20046;-72
2021/10/14 09:09:38;;;;;;;43.28;16.48;;;;;;;;;;8223343;28;20067;-73
2021/10/14 09:13:55;;;;;;;39.95;16.95;;;;;;;;;;8210528;28;20369;-73
2021/10/14 09:18:00;;;;;;;43.80;17.00;;;;;;;;;;8227700;28;20480;-72
2021/10/14 09:22:05;;;;;;;44.47;20.75;;;;;;;;;;8211494;28;20499;-72
2021/10/14 09:26:10;;;;;;;43.22;17.40;;;;;;;;;;8211395;28;20065;-72
2021/10/14 09:30:19;;;;;;;65.00;29.85;;;;;;;;;;8211685;28;20479;-73
2021/10/14 09:34:41;;;;;;;49.88;19.05;;;;;;;;;;8210223;28;20076;-73
2021/10/14 09:38:57;;;;;;;43.58;17.13;;;;;;;;;;8226035;28;20072;-72
2021/10/14 09:43:03;;;;;;;44.00;18.60;;;;;;;;;;8211235;28;20457;-73
2021/10/14 09:47:11;;;;;;;49.97;19.80;;;;;;;;;;8209175;28;20494;-73
2021/10/14 09:51:16;;;;;;;58.50;25.52;;;;;;;;;;8210190;28;20464;-72
2021/10/14 09:55:21;;;;;;;53.60;22.58;;;;;;;;;;8228852;28;20437;-73
2021/10/14 09:59:26;;;;;;;53.00;19.52;;;;;;;;;;8209429;28;20361;-72
2021/10/14 10:03:32;;;;;;;44.30;17.58;;;;;;;;;;8208214;28;20068;-73
2021/10/14 10:07:40;;;;;;;36.80;15.60;;;;;;;;;;8209174;28;20069;-73
2021/10/14 10:12:00;;;;;;;52.20;20.88;;;;;;;;;;8208841;28;20400;-73
2021/10/14 10:16:18;;;;;;;35.30;15.60;;;;;;;;;;8225276;28;20471;-73
2021/10/14 10:20:40;;;;;;;39.15;18.10;;;;;;;;;;8208081;28;20371;-73
2021/10/14 10:24:45;;;;;;;40.50;18.33;;;;;;;;;;8224637;28;20437;-73
2021/10/14 10:28:50;;;;;;;37.03;16.73;;;;;;;;;;8224341;28;20519;-73
2021/10/14 10:32:56;;;;;;;29.38;13.38;;;;;;;;;;8207907;28;20333;-73
2021/10/14 10:37:18;;;;;;;33.03;15.32;;;;;;;;;;8227272;28;20108;-73
2021/10/14 10:41:23;;;;;;;27.30;13.35;;;;;;;;;;8207326;28;20499;-73
2021/10/14 10:45:31;;;;;;;27.17;12.23;;;;;;;;;;8208018;28;20184;-73
2021/10/14 10:49:37;;;;;;;29.45;14.18;;;;;;;;;;8206993;28;20372;-73
2021/10/14 10:53:44;;;;;;;25.27;12.32;;;;;;;;;;8207563;28;20484;-73
2021/10/14 10:57:53;;;;;;;27.45;13.23;;;;;;;;;;8224634;28;20486;-73
2021/10/14 11:02:02;;;;;;;;;;;;;;;;;;8207236;28;20058;-73
2021/10/14 11:06:11;;;;;;;19.25;9.68;;;;;;;;;;8222344;28;20366;-73
2021/10/14 11:10:28;;;;;;;21.70;11.68;;;;;;;;;;8191274;28;20377;-73
2021/10/14 11:14:40;;;;;;;21.90;11.18;;;;;;;;;;8207129;28;20483;-74
2021/10/14 11:18:49;;;;;;;25.83;12.80;;;;;;;;;;8206858;28;20373;-73
2021/10/14 11:23:10;;;;;;;23.83;10.25;;;;;;;;;;8208921;28;20049;-73
2021/10/14 11:27:22;;;;;;;19.90;9.68;;;;;;;;;;8221989;28;20046;-73
2021/10/14 11:31:39;;;;;;;30.27;11.32;;;;;;;;;;8211086;28;20464;-73
2021/10/14 11:35:44;;;;;;;16.52;8.20;;;;;;;;;;8213929;28;20381;-73
2021/10/14 11:39:50;;;;;;;17.83;8.27;;;;;;;;;;8229641;28;20385;-73
2021/10/14 11:44:05;;;;;;;13.50;6.75;;;;;;;;;;8230976;28;20344;-72
2021/10/14 11:48:36;;;;;;;11.73;7.82;;;;;;;;;;8208627;28;20360;-73
2021/10/14 11:52:42;;;;;;;15.82;8.98;;;;;;;;;;8242397;28;20444;-73
2021/10/14 11:56:50;;;;;;;12.35;7.10;;;;;;;;;;8262047;28;20364;-73
2021/10/14 12:01:00;;;;;;;10.82;5.25;;;;;;;;;;8260749;28;20476;-72
2021/10/14 12:05:06;;;;;;;11.85;6.50;;;;;;;;;;8235805;28;20457;-73
2021/10/14 12:09:16;;;;;;;9.88;5.30;;;;;;;;;;8209591;28;20473;-73
2021/10/14 12:13:28;;;;;;;11.52;5.25;;;;;;;;;;8210844;28;20457;-74
2021/10/14 12:17:39;;;;;;;12.98;6.75;;;;;;;;;;8196596;28;20381;-73
2021/10/14 12:21:46;;;;;;;18.58;10.70;;;;;;;;;;8194752;28;20050;-74
2021/10/14 12:25:50;;;;;;;16.70;7.50;;;;;;;;;;8193305;28;20472;-73
2021/10/14 12:29:54;;;;;;;11.98;4.40;;;;;;;;;;8195839;28;20429;-73
2021/10/14 12:33:58;;;;;;;4.63;2.65;;;;;;;;;;8191623;28;20377;-73
2021/10/14 12:38:15;;;;;;;7.00;2.58;;;;;;;;;;8184568;28;20469;-74
2021/10/14 12:42:27;;;;;;;9.88;5.53;;;;;;;;;;8191704;28;20081;-73
2021/10/14 12:46:43;;;;;;;10.18;4.15;;;;;;;;;;8195553;28;20438;-73
2021/10/14 12:51:10;;;;;;;3.75;2.42;;;;;;;;;;8193089;28;20060;-73
2021/10/14 12:55:16;;;;;;;5.10;2.63;;;;;;;;;;8193635;28;20441;-73
2021/10/14 12:59:21;;;;;;;8.80;2.78;;;;;;;;;;8205572;28;20338;-72
2021/10/14 13:03:25;;;;;;;5.05;2.67;;;;;;;;;;8195559;28;20042;-73
2021/10/14 13:07:29;;;;;;;7.45;3.08;;;;;;;;;;8202768;28;20049;-73
2021/10/14 13:11:36;;;;;;;10.98;5.57;;;;;;;;;;8212345;28;20037;-73
2021/10/14 13:15:41;;;;;;;6.22;2.80;;;;;;;;;;8254293;28;20087;-73
2021/10/14 13:19:46;;;;;;;13.13;4.43;;;;;;;;;;8258168;28;20045;-74
2021/10/14 13:23:52;;;;;;;7.75;4.15;;;;;;;;;;8223831;28;20353;-73
2021/10/14 13:27:58;;;;;;;11.15;4.28;;;;;;;;;;8240398;28;20332;-73
2021/10/14 13:32:04;;;;;;;11.20;5.90;;;;;;;;;;8258529;28;20472;-73
2021/10/14 13:36:12;;;;;;;7.53;3.90;;;;;;;;;;8242439;28;20478;-73
2021/10/14 13:40:22;;;;;;;6.57;2.75;;;;;;;;;;8258096;28;20363;-73
2021/10/14 13:44:30;;;;;;;7.18;4.03;;;;;;;;;;8258931;28;20040;-73
2021/10/14 13:48:37;;;;;;;6.38;3.28;;;;;;;;;;8258655;28;20348;-74
2021/10/14 13:52:43;;;;;;;4.30;2.35;;;;;;;;;;8239460;28;20513;-73
2021/10/14 13:56:49;;;;;;;5.18;2.92;;;;;;;;;;8241469;28;20456;-74
2021/10/14 14:00:55;;;;;;;11.07;5.45;;;;;;;;;;8259831;28;20483;-74
2021/10/14 14:04:59;;;;;;;9.25;2.20;;;;;;;;;;8240212;28;20368;-74
2021/10/14 14:09:06;;;;;;;5.53;2.55;;;;;;;;;;8221839;28;20083;-73
2021/10/14 14:13:12;;;;;;;11.70;5.38;;;;;;;;;;8224894;28;20041;-73
2021/10/14 14:17:18;;;;;;;7.68;2.40;;;;;;;;;;8224626;28;20475;-74
2021/10/14 14:21:23;;;;;;;9.10;2.63;;;;;;;;;;8223328;28;20122;-73
2021/10/14 14:25:27;;;;;;;8.02;2.92;;;;;;;;;;8222601;28;20490;-74
2021/10/14 14:29:32;;;;;;;4.90;2.75;;;;;;;;;;8208277;28;20378;-73
2021/10/14 14:33:37;;;;;;;10.60;5.22;;;;;;;;;;8231072;28;20045;-73
2021/10/14 14:37:43;;;;;;;13.02;5.70;;;;;;;;;;8224343;28;20456;-73
2021/10/14 14:41:48;;;;;;;11.93;6.03;;;;;;;;;;8240439;28;20456;-74
2021/10/14 14:45:58;;;;;;;16.50;7.20;;;;;;;;;;8226881;28;20041;-74
2021/10/14 14:50:06;;;;;;;10.98;4.85;;;;;;;;;;8241352;28;20068;-74
2021/10/14 14:54:11;;;;;;;11.30;5.43;;;;;;;;;;8225361;28;20384;-74
2021/10/14 14:58:17;;;;;;;12.60;6.40;;;;;;;;;;8225666;28;20407;-74
2021/10/14 15:02:22;;;;;;;14.07;7.70;;;;;;;;;;8239457;28;20064;-74
2021/10/14 15:06:28;;;;;;;15.57;7.30;;;;;;;;;;8231814;28;20075;-74
2021/10/14 15:10:33;;;;;;;19.15;10.57;;;;;;;;;;8262079;28;20067;-74
2021/10/14 15:14:38;;;;;;;33.13;17.23;;;;;;;;;;8262842;28;20468;-74
2021/10/14 15:18:43;;;;;;;47.95;24.95;;;;;;;;;;8263702;28;20445;-74
2021/10/14 15:22:49;;;;;;;30.10;15.63;;;;;;;;;;8265272;28;20455;-74
2021/10/14 15:26:54;;;;;;;35.17;17.23;;;;;;;;;;8245144;28;20472;-74
2021/10/14 15:30:59;;;;;;;20.02;9.50;;;;;;;;;;8244625;28;20502;-74
2021/10/14 15:35:06;;;;;;;42.63;20.40;;;;;;;;;;8261339;28;20395;-74
2021/10/14 15:39:11;;;;;;;46.63;19.08;;;;;;;;;;8262280;28;20472;-74
2021/10/14 15:43:16;;;;;;;46.28;21.67;;;;;;;;;;8262313;28;20501;-75
2021/10/14 15:47:21;;;;;;;39.92;17.05;;;;;;;;;;8262089;28;20367;-75
2021/10/14 15:51:26;;;;;;;23.45;10.32;;;;;;;;;;8264305;28;20375;-73
2021/10/14 15:55:32;;;;;;;31.23;13.98;;;;;;;;;;8259941;28;20049;-74
2021/10/14 15:59:37;;;;;;;31.80;14.43;;;;;;;;;;8263343;28;20368;-75
2021/10/14 16:03:42;;;;;;;24.42;10.52;;;;;;;;;;8243710;28;20360;-74
2021/10/14 16:07:47;;;;;;;87.38;36.53;;;;;;;;;;8260560;28;20075;-75
2021/10/14 16:11:54;;;;;;;40.60;17.50;;;;;;;;;;8261039;28;20452;-74
2021/10/14 16:15:59;;;;;;;51.00;21.52;;;;;;;;;;8243358;28;20463;-73
2021/10/14 16:20:05;;;;;;;55.80;16.27;;;;;;;;;;8263620;28;20566;-74
2021/10/14 16:24:10;;;;;;;51.17;19.73;;;;;;;;;;8263553;28;20049;-74
2021/10/14 16:28:17;;;;;;;31.33;14.82;;;;;;;;;;8261148;28;20345;-74
2021/10/14 16:32:25;;;;;;;37.15;17.23;;;;;;;;;;8260209;28;20345;-74
2021/10/14 16:36:30;;;;;;;33.40;15.23;;;;;;;;;;8261738;28;20041;-74
2021/10/14 16:40:35;;;;;;;35.30;17.17;;;;;;;;;;8262825;28;20067;-74
2021/10/14 16:44:41;;;;;;;55.60;18.92;;;;;;;;;;8260265;28;20490;-74
2021/10/14 16:48:46;;;;;;;66.55;21.48;;;;;;;;;;8261679;28;20060;-74
2021/10/14 16:52:51;;;;;;;35.33;14.88;;;;;;;;;;8261902;28;20459;-74
2021/10/14 16:57:02;;;;;;;31.63;11.63;;;;;;;;;;8243077;28;20349;-73
2021/10/14 17:01:09;;;;;;;63.70;20.33;;;;;;;;;;8140591;28;20503;-73
2021/10/14 17:05:17;;;;;;;39.22;13.02;;;;;;;;;;8259869;28;20387;-74
2021/10/14 17:09:24;;;;;;;27.02;11.27;;;;;;;;;;8257861;28;20494;-74
2021/10/14 17:13:30;;;;;;;32.95;12.85;;;;;;;;;;8258244;28;20380;-74
2021/10/14 17:17:37;;;;;;;29.27;12.18;;;;;;;;;;8258543;28;20371;-75
2021/10/14 17:22:18;;;;;;;29.58;13.48;;;;;;;;;;7567798;28;20004158;-74
2021/10/14 17:39:32;;;;;;;37.60;15.50;;;;;;;;;;8243383;28;20349;-75
2021/10/14 17:43:41;;;;;;;36.17;14.77;;;;;;;;;;8258006;28;20037;-74
2021/10/14 17:47:47;;;;;;;29.58;11.63;;;;;;;;;;8240852;28;20507;-75
2021/10/14 17:51:57;;;;;;;26.75;11.52;;;;;;;;;;8257345;28;20387;-74
2021/10/14 17:56:05;;;;;;;23.70;10.30;;;;;;;;;;8257260;28;20479;-74
2021/10/14 18:00:11;;;;;;;27.42;10.63;;;;;;;;;;8257501;28;20061;-75
2021/10/14 18:04:21;;;;;;;19.35;8.07;;;;;;;;;;8256154;28;20503;-74
2021/10/14 18:08:51;;;;;;;25.13;13.35;;;;;;;;;;8206955;28;20346;-74
2021/10/14 18:39:16;;;;;;;23.70;10.43;;;;;;;;;;8216820;28;20385;-74
2021/10/14 18:43:21;;;;;;;25.02;11.20;;;;;;;;;;8190814;28;20350;-74
2021/10/14 18:47:27;;;;;;;27.05;13.05;;;;;;;;;;8208106;28;20365;-74
2021/10/14 18:51:32;;;;;;;30.63;14.05;;;;;;;;;;8194157;28;20457;-73
2021/10/14 18:55:38;;;;;;;30.50;12.75;;;;;;;;;;8192593;28;20037;-73
2021/10/14 19:00:03;;;;;;;38.50;14.82;;;;;;;;;;8190560;28;20468;-73
2021/10/14 19:04:14;;;;;;;31.60;12.50;;;;;;;;;;8192524;28;20049;-73
2021/10/14 19:08:31;;;;;;;26.38;11.75;;;;;;;;;;8224541;28;20530;-73
2021/10/14 19:17:31;;;;;;;24.25;10.43;;;;;;;;;;8207011;28;20460;-73
2021/10/14 20:14:44;;;;;;;14.70;6.57;;;;;;;;;;8262018;28;20468;-73
2021/10/14 20:23:16;;;;;;;16.55;8.95;;;;;;;;;;8261790;28;20063;-74
2021/10/14 20:27:22;;;;;;;;;;;;;;;;;;8263811;28;20429;-73
2021/10/14 20:31:29;;;;;;;17.40;7.78;;;;;;;;;;8228947;28;20370;-74
2021/10/14 20:35:34;;;;;;;17.55;7.60;;;;;;;;;;8262450;28;20459;-73
2021/10/14 20:39:39;;;;;;;22.27;8.23;;;;;;;;;;8261461;28;20472;-74
2021/10/14 20:43:44;;;;;;;25.20;8.65;;;;;;;;;;8261241;28;20464;-74
2021/10/14 20:47:50;;;;;;;25.65;8.45;;;;;;;;;;8259576;28;20479;-74
2021/10/14 20:52:02;;;;;;;14.27;7.00;;;;;;;;;;8260427;28;20344;-73
2021/10/14 20:56:30;;;;;;;15.35;6.82;;;;;;;;;;8261261;28;20045;-74
2021/10/14 21:04:58;;;;;;;16.35;7.30;;;;;;;;;;8258906;28;20037;-73
2021/10/14 21:09:05;;;;;;;26.35;12.10;;;;;;;;;;8242385;28;20061;-74
2021/10/14 21:13:24;;;;;;;19.50;9.73;;;;;;;;;;8227563;28;20452;-73
2021/10/14 21:17:29;;;;;;;30.27;10.48;;;;;;;;;;8227100;28;20468;-73
2021/10/14 21:21:34;;;;;;;32.15;11.98;;;;;;;;;;8226558;28;20372;-74
2021/10/14 21:25:42;;;;;;;21.25;8.80;;;;;;;;;;8226593;28;20487;-74
2021/10/14 21:30:05;;;;;;;23.67;10.73;;;;;;;;;;8225851;28;20045;-73
2021/10/14 21:38:35;;;;;;;38.20;16.63;;;;;;;;;;8239872;28;20510;-74
2021/10/14 21:42:40;;;;;;;18.98;8.27;;;;;;;;;;8225838;28;20471;-73
2021/10/14 21:46:45;;;;;;;19.58;7.45;;;;;;;;;;8240345;28;20064;-74
2021/10/14 21:50:54;;;;;;;19.13;6.63;;;;;;;;;;8226371;28;20041;-73
2021/10/14 21:54:59;;;;;;;17.30;6.85;;;;;;;;;;8226188;28;20483;-74
2021/10/14 21:59:05;;;;;;;15.80;6.90;;;;;;;;;;8225971;28;20351;-73
2021/10/14 22:03:11;;;;;;;13.23;6.18;;;;;;;;;;8224957;28;20068;-73
2021/10/14 22:07:17;;;;;;;18.58;6.55;;;;;;;;;;8249518;28;20053;-73
2021/10/14 22:11:22;;;;;;;14.48;6.82;;;;;;;;;;8260451;28;20067;-73
2021/10/14 22:15:28;;;;;;;12.15;6.53;;;;;;;;;;8257028;28;20495;-74
2021/10/14 22:19:33;;;;;;;15.00;6.65;;;;;;;;;;8257702;28;20049;-73
2021/10/14 22:23:41;;;;;;;20.10;9.05;;;;;;;;;;8255037;28;20475;-73
2021/10/14 22:27:46;;;;;;;28.05;9.85;;;;;;;;;;8257664;28;20474;-74
2021/10/14 22:31:51;;;;;;;20.08;9.85;;;;;;;;;;8257816;28;20102;-74
2021/10/14 22:35:57;;;;;;;22.20;9.00;;;;;;;;;;8257259;28;20349;-74
2021/10/14 22:40:03;;;;;;;17.35;7.05;;;;;;;;;;8258813;28;20399;-74
2021/10/14 22:44:08;;;;;;;19.98;8.75;;;;;;;;;;8256330;28;20477;-73
2021/10/14 22:48:14;;;;;;;17.58;6.22;;;;;;;;;;8257769;28;20453;-73
2021/10/14 22:52:20;;;;;;;14.55;6.20;;;;;;;;;;8259395;28;20487;-74
2021/10/14 22:56:32;;;;;;;17.15;7.43;;;;;;;;;;8256830;28;20037;-74
2021/10/14 23:00:39;;;;;;;14.65;5.85;;;;;;;;;;8258069;28;20476;-73
2021/10/14 23:04:45;;;;;;;16.77;6.68;;;;;;;;;;8256943;28;20080;-73
2021/10/14 23:08:50;;;;;;;13.38;6.07;;;;;;;;;;8222699;28;20354;-73
2021/10/14 23:12:55;;;;;;;13.60;5.78;;;;;;;;;;8206713;28;20461;-74
2021/10/14 23:17:00;;;;;;;12.48;4.90;;;;;;;;;;8223063;28;20060;-73
2021/10/14 23:21:05;;;;;;;10.77;4.97;;;;;;;;;;8206456;28;20057;-73
2021/10/14 23:25:11;;;;;;;14.80;6.05;;;;;;;;;;8222585;28;20077;-73
2021/10/14 23:29:16;;;;;;;12.40;5.35;;;;;;;;;;8213293;28;20042;-73
2021/10/14 23:33:21;;;;;;;14.45;5.65;;;;;;;;;;8197815;28;20045;-73
2021/10/14 23:37:26;;;;;;;15.75;4.75;;;;;;;;;;8228356;28;20445;-73
2021/10/14 23:41:31;;;;;;;14.15;5.68;;;;;;;;;;8197778;28;20461;-73
2021/10/14 23:45:36;;;;;;;14.77;5.20;;;;;;;;;;8196077;28;20103;-73
2021/10/14 23:49:41;;;;;;;8.57;4.53;;;;;;;;;;8199886;28;20507;-74
2021/10/14 23:53:46;;;;;;;11.93;5.05;;;;;;;;;;8199264;28;20476;-74
2021/10/14 23:57:52;;;;;;;15.27;5.05;;;;;;;;;;8196587;28;20511;-73
